Time;durP1;ratioP1;P1;durP2;ratioP2;P2;SDS_P1;SDS_P2;PMS_P1;PMS_P2;Temp;Humidity;BMP_temperature;BMP_pressure;BME280_temperature;BME280_humidity;BME280_pressure;Samples;Min_cycle;Max_cycle;Signal;HPM_P1;HPM_P2
2022/03/12 00:02:07;;;;;;;16.38;11.80;;;;;;;11.18;35.01;99359.56;4979604;28;20057;-77
2022/03/12 00:04:32;;;;;;;17.63;12.30;;;;;;;11.21;35.29;99367.28;4996373;28;20042;-77
2022/03/12 00:07:14;;;;;;;16.52;11.65;;;;;;;11.23;34.75;99368.03;4963794;28;20633;-75
2022/03/12 00:09:40;;;;;;;21.80;14.15;;;;;;;11.22;34.81;99366.31;4992109;28;20038;-77
2022/03/12 00:12:08;;;;;;;15.57;11.20;;;;;;;11.25;34.81;99360.00;4992875;28;20061;-76
2022/03/12 00:14:37;;;;;;;15.90;11.43;;;;;;;11.24;34.76;99363.59;4992572;28;20061;-77
2022/03/12 00:17:03;;;;;;;23.65;13.25;;;;;;;11.23;34.85;99365.41;4992160;28;20030;-76
2022/03/12 00:19:30;;;;;;;15.50;11.40;;;;;;;11.22;35.00;99371.59;4993326;28;20038;-76
2022/03/12 00:21:55;;;;;;;19.70;12.60;;;;;;;11.22;35.10;99371.59;4991798;28;20043;-76
2022/03/12 00:24:22;;;;;;;17.58;11.95;;;;;;;11.22;35.15;99374.25;4990656;28;20038;-77
2022/03/12 00:26:50;;;;;;;16.60;11.60;;;;;;;11.21;35.02;99371.72;4990855;28;20112;-76
2022/03/12 00:29:16;;;;;;;24.75;11.40;;;;;;;11.20;35.14;99372.63;4990865;28;20046;-77
2022/03/12 00:31:46;;;;;;;19.88;13.05;;;;;;;11.19;35.38;99384.97;4990480;28;20034;-77
2022/03/12 00:34:13;;;;;;;20.48;12.90;;;;;;;11.19;35.30;99379.69;4991137;28;20049;-76
2022/03/12 00:36:39;;;;;;;21.33;12.00;;;;;;;11.16;35.79;99371.97;4991201;28;20113;-77
2022/03/12 00:39:08;;;;;;;17.83;11.73;;;;;;;11.13;35.78;99377.44;4991322;28;20031;-76
2022/03/12 00:41:42;;;;;;;21.55;12.52;;;;;;;11.11;35.99;99374.88;4989860;28;20105;-77
2022/03/12 00:44:12;;;;;;;18.95;12.57;;;;;;;11.10;35.90;99381.09;4990526;28;20093;-75
2022/03/12 00:46:37;;;;;;;18.23;11.63;;;;;;;11.07;36.28;99378.63;4991854;28;20070;-79
2022/03/12 00:49:03;;;;;;;20.77;12.32;;;;;;;11.04;36.32;99378.81;4994853;28;20134;-77
2022/03/12 00:51:28;;;;;;;20.15;11.38;;;;;;;11.06;36.23;99378.72;4995007;28;20139;-78
2022/03/12 00:53:53;;;;;;;18.13;11.68;;;;;;;11.08;36.30;99395.31;4978093;28;20030;-78
2022/03/12 00:56:19;;;;;;;17.85;10.82;;;;;;;11.07;36.88;99386.53;4965589;28;20122;-78
2022/03/12 00:58:46;;;;;;;17.50;10.98;;;;;;;11.06;36.85;99389.28;5008097;28;20038;-78
2022/03/12 01:01:12;;;;;;;17.58;13.07;;;;;;;11.09;36.87;99389.94;4991876;28;20110;-78
2022/03/12 01:03:38;;;;;;;23.95;11.73;;;;;;;11.06;37.23;99398.03;4976014;28;20561;-79
2022/03/12 01:06:05;;;;;;;20.25;12.27;;;;;;;11.06;37.88;99391.91;4959621;28;20035;-78
2022/03/12 01:08:32;;;;;;;13.55;9.75;;;;;;;11.06;37.91;99390.13;4964378;28;20039;-78
2022/03/12 01:11:01;;;;;;;17.20;10.63;;;;;;;11.03;38.04;99389.47;4968506;28;20040;-77
2022/03/12 01:13:29;;;;;;;18.60;11.55;;;;;;;10.97;38.66;99409.09;4964855;28;20124;-78
2022/03/12 01:15:55;;;;;;;15.52;11.57;;;;;;;10.95;38.75;99409.22;4967644;28;20090;-78
2022/03/12 01:18:22;;;;;;;25.75;11.00;;;;;;;10.90;38.99;99408.63;4970661;28;20317;-76
2022/03/12 01:20:49;;;;;;;17.83;12.25;;;;;;;10.87;39.44;99408.78;4965324;28;20376;-75
2022/03/12 01:23:17;;;;;;;17.27;12.25;;;;;;;10.83;39.50;99409.03;4963983;28;20039;-77
2022/03/12 01:25:43;;;;;;;15.52;11.30;;;;;;;10.84;40.02;99418.66;4969788;28;20039;-80
2022/03/12 01:28:10;;;;;;;16.92;10.43;;;;;;;10.82;40.56;99417.91;4956663;28;20046;-79
2022/03/12 01:30:36;;;;;;;16.02;11.57;;;;;;;10.79;40.38;99424.19;4972776;28;20067;-80
2022/03/12 01:33:01;;;;;;;15.93;9.95;;;;;;;10.76;40.95;99427.00;4963624;28;20491;-78
2022/03/12 01:35:27;;;;;;;14.20;10.85;;;;;;;10.74;41.13;99413.91;4960252;28;20051;-80
2022/03/12 01:38:42;;;;;;;13.90;10.27;;;;;;;10.72;41.08;99417.56;4944810;29;20380;-80
2022/03/12 01:41:08;;;;;;;17.15;11.15;;;;;;;10.67;41.88;99420.44;4981030;28;20660;-80
2022/03/12 01:43:36;;;;;;;18.60;10.15;;;;;;;10.65;42.16;99421.47;4962537;28;20054;-79
2022/03/12 01:46:29;;;;;;;17.92;9.85;;;;;;;10.57;42.46;99431.59;4961362;28;20114;-79
2022/03/12 01:48:59;;;;;;;12.45;8.60;;;;;;;10.53;42.60;99420.34;4978947;28;20045;-79
2022/03/12 01:51:26;;;;;;;15.73;10.65;;;;;;;10.51;43.66;99420.44;4959248;28;20066;-78
2022/03/12 01:53:53;;;;;;;15.38;10.48;;;;;;;10.52;43.96;99424.78;4979025;28;20498;-79
2022/03/12 01:56:19;;;;;;;12.52;10.02;;;;;;;10.49;45.47;99432.84;4978139;28;20054;-78
2022/03/12 01:58:47;;;;;;;13.57;9.88;;;;;;;10.49;45.21;99424.09;4980400;28;20023;-78
2022/03/12 02:01:14;;;;;;;15.60;10.55;;;;;;;10.43;46.06;99430.53;4983909;28;20038;-78
2022/03/12 02:03:40;;;;;;;13.38;8.77;;;;;;;10.47;45.87;99432.09;4990296;28;20039;-78
2022/03/12 02:06:06;;;;;;;15.73;10.18;;;;;;;10.48;46.31;99425.91;4986303;28;20034;-78
2022/03/12 02:08:31;;;;;;;13.85;9.25;;;;;;;10.46;47.10;99425.13;4976810;28;20127;-78
2022/03/12 02:10:58;;;;;;;13.95;8.40;;;;;;;10.47;47.13;99420.69;4973756;28;20038;-78
2022/03/12 02:13:25;;;;;;;16.73;9.25;;;;;;;10.46;48.44;99417.22;4972915;28;20030;-78
2022/03/12 02:16:09;;;;;;;14.27;9.43;;;;;;;10.44;49.36;99421.72;4973836;28;20037;-78
2022/03/12 02:18:36;;;;;;;12.98;8.50;;;;;;;10.44;49.15;99434.91;4973069;28;20402;-77
2022/03/12 02:21:03;;;;;;;13.00;8.63;;;;;;;10.42;49.53;99436.75;4954857;28;20097;-77
2022/03/12 02:23:28;;;;;;;11.45;8.55;;;;;;;10.37;50.75;99433.53;4971789;28;20042;-77
2022/03/12 02:26:01;;;;;;;13.85;9.48;;;;;;;10.36;51.42;99437.09;4975665;28;20458;-78
2022/03/12 02:28:27;;;;;;;12.05;8.55;;;;;;;10.34;52.28;99433.69;4976003;28;20384;-78
2022/03/12 02:30:55;;;;;;;13.50;8.45;;;;;;;10.31;53.00;99428.56;4973872;28;20566;-77
2022/03/12 02:33:27;;;;;;;12.13;8.30;;;;;;;10.30;54.64;99437.41;4971380;28;20049;-77
2022/03/12 02:35:53;;;;;;;11.45;8.52;;;;;;;10.30;54.16;99435.63;4974238;28;20043;-79
2022/03/12 02:38:21;;;;;;;10.38;8.18;;;;;;;10.32;54.97;99425.03;4976207;28;20043;-79
2022/03/12 02:40:48;;;;;;;15.00;7.70;;;;;;;10.27;56.20;99435.78;4982694;28;20064;-78
2022/03/12 02:43:13;;;;;;;9.00;7.00;;;;;;;10.27;55.38;99421.75;4975444;28;20041;-79
2022/03/12 02:45:40;;;;;;;9.20;6.97;;;;;;;10.27;56.18;99427.03;4977054;28;20034;-79
2022/03/12 02:48:08;;;;;;;10.68;6.78;;;;;;;10.29;56.35;99426.03;4976673;28;20391;-79
2022/03/12 02:50:34;;;;;;;10.75;7.10;;;;;;;10.22;57.38;99429.06;4972839;28;20031;-80
2022/03/12 02:53:00;;;;;;;11.93;7.50;;;;;;;10.19;57.68;99423.94;4987487;28;20046;-78
2022/03/12 02:55:26;;;;;;;17.40;6.78;;;;;;;10.23;57.35;99426.31;5001077;28;20038;-79
2022/03/12 02:57:52;;;;;;;10.32;6.65;;;;;;;10.29;57.99;99435.72;4967075;28;20081;-79
2022/03/12 03:00:20;;;;;;;8.48;6.82;;;;;;;10.25;58.44;99428.88;4968221;28;20101;-78
2022/03/12 03:02:52;;;;;;;9.70;7.03;;;;;;;10.25;58.40;99426.25;4976039;28;20035;-77
2022/03/12 03:06:00;;;;;;;7.78;6.03;;;;;;;10.23;58.69;99428.94;4975989;28;20035;-78
2022/03/12 03:08:09;;;;;;;8.55;5.97;;;;;;;10.23;59.37;99436.84;4989758;28;20038;-77
2022/03/12 03:10:41;;;;;;;9.98;5.97;;;;;;;10.21;59.75;99427.34;4991514;28;20042;-77
2022/03/12 03:13:16;;;;;;;8.82;6.05;;;;;;;10.20;59.79;99437.03;4973815;28;20524;-77
2022/03/12 03:16:00;;;;;;;12.15;5.82;;;;;;;10.20;59.49;99444.94;4992069;28;20125;-76
2022/03/12 03:18:30;;;;;;;8.68;7.10;;;;;;;10.19;60.01;99440.59;4990667;28;20113;-78
2022/03/12 03:20:56;;;;;;;6.85;5.43;;;;;;;10.24;59.74;99449.13;4975921;28;20042;-77
2022/03/12 03:23:44;;;;;;;8.05;5.65;;;;;;;10.21;60.69;99448.41;4978598;28;20030;-79
2022/03/12 03:26:09;;;;;;;8.05;5.43;;;;;;;10.17;60.64;99452.16;4978976;28;20034;-79
2022/03/12 03:28:35;;;;;;;6.28;5.03;;;;;;;10.16;60.67;99458.34;5000875;28;20042;-78
2022/03/12 03:31:04;;;;;;;8.63;5.68;;;;;;;10.13;60.47;99455.88;4984913;28;20034;-78
2022/03/12 03:33:29;;;;;;;7.85;5.22;;;;;;;10.08;61.08;99459.59;4982222;28;20121;-78
2022/03/12 03:35:55;;;;;;;6.70;4.93;;;;;;;10.03;61.53;99458.97;4973301;28;20117;-79
2022/03/12 03:38:20;;;;;;;7.38;5.05;;;;;;;10.00;61.14;99467.06;4973867;28;20031;-77
2022/03/12 03:40:46;;;;;;;7.10;5.25;;;;;;;9.96;61.03;99462.88;4991633;28;20085;-78
2022/03/12 03:43:15;;;;;;;6.57;4.80;;;;;;;9.87;62.17;99458.94;4973460;28;20642;-77
2022/03/12 03:45:45;;;;;;;6.28;4.85;;;;;;;9.83;62.36;99472.34;4991404;28;20034;-77
2022/03/12 03:48:16;;;;;;;7.75;5.18;;;;;;;9.78;62.56;99469.09;4989735;28;20089;-77
2022/03/12 03:50:43;;;;;;;8.18;5.78;;;;;;;9.74;63.08;99480.69;4990035;28;20061;-77
2022/03/12 03:53:12;;;;;;;6.85;4.80;;;;;;;9.68;64.12;99490.63;4974135;28;20490;-77
2022/03/12 03:55:38;;;;;;;7.63;4.75;;;;;;;9.67;64.00;99483.66;4973705;28;20050;-78
2022/03/12 03:58:04;;;;;;;5.95;4.45;;;;;;;9.67;64.03;99491.56;4991254;28;20033;-77
2022/03/12 04:00:31;;;;;;;7.38;5.03;;;;;;;9.65;63.75;99488.13;4992293;28;20046;-77
2022/03/12 04:03:04;;;;;;;5.85;4.80;;;;;;;9.61;63.96;99489.22;4991732;28;20034;-78
2022/03/12 04:05:31;;;;;;;7.72;5.32;;;;;;;9.51;64.96;99481.88;4981500;28;20038;-77
2022/03/12 04:07:57;;;;;;;6.10;4.38;;;;;;;9.52;64.69;99492.28;4989917;28;20034;-77
2022/03/12 04:10:24;;;;;;;6.03;4.45;;;;;;;9.49;65.01;99487.19;5006141;28;20042;-76
2022/03/12 04:12:50;;;;;;;7.30;4.88;;;;;;;9.48;64.42;99492.56;4980464;28;20066;-77
2022/03/12 04:15:17;;;;;;;6.25;5.05;;;;;;;9.44;64.69;99492.69;4995101;28;20045;-77
2022/03/12 04:17:44;;;;;;;7.32;4.88;;;;;;;9.42;65.67;99496.31;4976927;28;20668;-77
2022/03/12 04:20:17;;;;;;;6.80;5.00;;;;;;;9.40;65.48;99504.31;4995075;28;20893;-79
2022/03/12 04:22:43;;;;;;;8.25;5.10;;;;;;;9.36;65.86;99502.72;4977383;28;20037;-77
2022/03/12 04:25:12;;;;;;;6.93;4.78;;;;;;;9.32;65.48;99501.16;4979433;28;20038;-77
2022/03/12 04:27:38;;;;;;;7.50;5.43;;;;;;;9.27;65.88;99505.81;4979090;28;20042;-78
2022/03/12 04:30:05;;;;;;;7.95;5.50;;;;;;;9.23;66.37;99507.75;4959974;28;20515;-77
2022/03/12 04:32:31;;;;;;;8.15;5.35;;;;;;;9.19;66.59;99510.59;4975572;28;20557;-77
2022/03/12 04:34:56;;;;;;;8.35;4.95;;;;;;;9.16;65.97;99516.00;4965129;28;20042;-78
2022/03/12 04:37:22;;;;;;;8.30;5.47;;;;;;;9.14;66.58;99517.84;4974211;28;20118;-77
2022/03/12 04:39:49;;;;;;;8.27;6.03;;;;;;;9.09;67.22;99515.44;4959566;28;20038;-78
2022/03/12 04:42:18;;;;;;;7.80;5.50;;;;;;;9.10;67.07;99518.91;4950247;28;20043;-78
2022/03/12 04:44:43;;;;;;;7.35;5.70;;;;;;;9.07;66.85;99519.91;4988184;28;20034;-77
2022/03/12 04:47:10;;;;;;;9.30;5.90;;;;;;;9.03;67.24;99511.31;4959921;28;20035;-77
2022/03/12 04:49:36;;;;;;;7.60;4.93;;;;;;;8.99;67.82;99514.16;4942730;28;20544;-76
2022/03/12 04:52:01;;;;;;;7.05;4.65;;;;;;;8.95;68.15;99515.22;4989335;28;20098;-77
2022/03/12 04:54:33;;;;;;;6.50;5.00;;;;;;;8.91;67.79;99508.41;4981051;28;20035;-77
2022/03/12 04:56:58;;;;;;;9.05;6.22;;;;;;;8.88;67.56;99506.78;4968894;28;20354;-79
2022/03/12 04:59:24;;;;;;;8.52;5.55;;;;;;;8.87;67.57;99520.84;5006405;28;20034;-79
2022/03/12 05:01:49;;;;;;;7.90;5.43;;;;;;;8.85;68.02;99521.84;5005736;28;20027;-78
2022/03/12 05:04:15;;;;;;;8.20;5.55;;;;;;;8.82;68.37;99515.81;4989279;28;20030;-77
2022/03/12 05:06:40;;;;;;;6.63;5.05;;;;;;;8.80;67.85;99520.28;5008201;28;20093;-79
2022/03/12 05:09:06;;;;;;;7.53;4.53;;;;;;;8.82;68.44;99528.94;4958242;28;20053;-77
2022/03/12 05:11:38;;;;;;;7.28;5.60;;;;;;;8.84;68.53;99525.41;4978933;28;20070;-78
2022/03/12 05:14:04;;;;;;;6.28;4.70;;;;;;;8.83;68.78;99524.53;4978606;28;20034;-77
2022/03/12 05:16:31;;;;;;;6.10;4.68;;;;;;;8.80;68.31;99525.53;4974260;28;20035;-76
2022/03/12 05:18:57;;;;;;;5.47;4.35;;;;;;;8.79;68.75;99523.84;4973676;28;20402;-77
2022/03/12 05:21:23;;;;;;;7.25;4.82;;;;;;;8.75;68.53;99514.38;4972715;28;20434;-76
2022/03/12 05:23:48;;;;;;;8.43;5.38;;;;;;;8.74;69.08;99525.81;4972371;28;20034;-77
2022/03/12 05:26:14;;;;;;;6.35;4.45;;;;;;;8.71;68.73;99518.09;4956238;28;20122;-76
2022/03/12 05:28:41;;;;;;;6.72;4.90;;;;;;;8.71;68.97;99530.34;4973357;28;20043;-77
2022/03/12 05:31:09;;;;;;;6.47;4.63;;;;;;;8.68;68.80;99523.47;4980292;28;20034;-77
2022/03/12 05:33:35;;;;;;;6.82;4.50;;;;;;;8.65;69.28;99513.09;4985486;28;20035;-78
2022/03/12 05:36:01;;;;;;;6.68;4.85;;;;;;;8.64;69.18;99511.41;4973244;28;20478;-78
2022/03/12 05:38:34;;;;;;;7.30;4.88;;;;;;;8.63;69.60;99522.81;4981845;28;20039;-79
2022/03/12 05:41:00;;;;;;;8.30;4.95;;;;;;;8.61;69.18;99514.16;4967496;28;20031;-78
2022/03/12 05:43:27;;;;;;;9.27;5.30;;;;;;;8.63;68.92;99516.72;4982609;28;20049;-79
2022/03/12 05:45:52;;;;;;;10.82;5.13;;;;;;;8.64;69.36;99518.41;4984056;28;20036;-78
2022/03/12 05:48:19;;;;;;;6.55;4.82;;;;;;;8.66;69.45;99516.56;4972648;28;20033;-78
2022/03/12 05:50:48;;;;;;;6.45;4.80;;;;;;;8.67;68.91;99513.88;5031451;23;20043;-78
2022/03/12 05:53:18;;;;;;;6.68;5.07;;;;;;;8.71;69.03;99514.59;4941773;29;20036;-79
2022/03/12 05:55:44;;;;;;;7.63;5.53;;;;;;;8.73;68.74;99518.00;4936517;29;20048;-76
2022/03/12 05:58:11;;;;;;;7.93;4.57;;;;;;;8.75;69.30;99522.25;4923350;29;20047;-77
2022/03/12 06:00:39;;;;;;;7.45;6.00;;;;;;;8.76;68.50;99517.84;4920938;29;20036;-77
2022/03/12 06:03:10;;;;;;;10.23;5.97;;;;;;;8.77;69.31;99517.78;4922838;29;20055;-78
2022/03/12 06:05:41;;;;;;;7.30;5.13;;;;;;;8.79;69.12;99517.72;4943484;29;20396;-77
2022/03/12 06:08:08;;;;;;;6.70;5.13;;;;;;;8.79;68.87;99521.22;4947394;29;20040;-79
2022/03/12 06:10:37;;;;;;;7.13;4.75;;;;;;;8.82;68.12;99518.44;4927801;29;20113;-78
2022/03/12 06:13:03;;;;;;;9.43;5.55;;;;;;;8.88;68.20;99521.69;4943143;29;20183;-77
2022/03/12 06:15:29;;;;;;;7.72;5.47;;;;;;;8.90;68.36;99525.09;4938940;29;20036;-77
2022/03/12 06:17:54;;;;;;;7.57;5.78;;;;;;;8.89;68.84;99519.00;4924967;29;20047;-77
2022/03/12 06:20:21;;;;;;;9.68;6.78;;;;;;;8.89;68.85;99524.25;4920017;29;20059;-78
2022/03/12 06:22:47;;;;;;;6.88;5.70;;;;;;;8.93;68.06;99530.22;4915376;29;20496;-77
2022/03/12 06:25:15;;;;;;;7.18;5.53;;;;;;;8.93;68.04;99540.72;4921855;29;20044;-79
2022/03/12 06:27:42;;;;;;;8.30;5.57;;;;;;;8.96;68.18;99545.88;4928357;29;20050;-79
2022/03/12 06:30:10;;;;;;;9.73;5.93;;;;;;;9.00;68.27;99547.41;4910480;29;20036;-80
2022/03/12 06:32:37;;;;;;;9.82;7.03;;;;;;;8.98;68.23;99555.41;4928871;29;20045;-79
2022/03/12 06:35:04;;;;;;;8.38;5.72;;;;;;;9.03;68.03;99553.41;4929313;29;20080;-79
2022/03/12 06:37:30;;;;;;;6.90;4.82;;;;;;;9.07;68.23;99554.09;4911311;29;20032;-79
2022/03/12 06:39:56;;;;;;;8.77;6.50;;;;;;;9.13;68.01;99553.81;4929159;29;20043;-77
2022/03/12 06:42:24;;;;;;;8.73;5.93;;;;;;;9.18;67.68;99564.97;4895786;29;20043;-76
2022/03/12 06:44:54;;;;;;;10.80;6.15;;;;;;;9.20;67.69;99565.72;4933984;29;20472;-76
2022/03/12 06:47:21;;;;;;;8.00;6.20;;;;;;;9.23;67.45;99562.97;4941679;29;20036;-78
2022/03/12 06:49:46;;;;;;;7.43;5.80;;;;;;;9.28;67.00;99569.78;4945247;29;20036;-79
2022/03/12 06:52:12;;;;;;;7.90;6.10;;;;;;;9.35;67.15;99573.81;4906024;29;20032;-78
2022/03/12 06:54:38;;;;;;;8.93;5.65;;;;;;;9.42;66.49;99573.47;4926346;29;20115;-78
2022/03/12 06:57:04;;;;;;;8.40;6.55;;;;;;;9.44;66.59;99576.03;4927210;29;20043;-79
2022/03/12 06:59:30;;;;;;;8.20;5.88;;;;;;;9.52;66.70;99576.50;4947669;29;20068;-78
2022/03/12 07:01:56;;;;;;;9.40;7.38;;;;;;;9.60;66.33;99584.91;4923621;29;20063;-78
2022/03/12 07:04:21;;;;;;;10.20;7.45;;;;;;;9.67;65.94;99586.31;4938922;29;20051;-79
2022/03/12 07:06:48;;;;;;;8.13;6.05;;;;;;;9.66;65.83;99586.38;4941016;29;20035;-78
2022/03/12 07:09:14;;;;;;;7.47;6.07;;;;;;;9.73;65.74;99595.69;4929139;29;20051;-78
2022/03/12 07:11:40;;;;;;;8.55;6.18;;;;;;;9.82;65.28;99584.72;4940785;29;20092;-79
2022/03/12 07:14:05;;;;;;;9.95;6.80;;;;;;;9.94;64.78;99600.81;4949773;29;20032;-79
2022/03/12 07:16:31;;;;;;;8.65;6.38;;;;;;;10.09;64.21;99607.94;4949996;29;20035;-79
2022/03/12 07:18:57;;;;;;;8.73;6.60;;;;;;;10.19;63.76;99613.59;4917636;29;20035;-79
2022/03/12 07:21:23;;;;;;;9.90;6.60;;;;;;;10.30;63.77;99612.16;4950789;29;20095;-79
2022/03/12 07:23:49;;;;;;;8.15;5.97;;;;;;;10.41;63.01;99623.94;4946889;29;20492;-77
2022/03/12 07:26:15;;;;;;;8.07;6.38;;;;;;;10.38;62.92;99624.94;4938026;29;20531;-76
2022/03/12 07:28:42;;;;;;;7.80;5.57;;;;;;;10.50;62.69;99634.00;4920607;29;20048;-76
2022/03/12 07:31:07;;;;;;;6.20;5.20;;;;;;;10.55;62.19;99631.16;4931582;29;20044;-78
2022/03/12 07:33:34;;;;;;;7.03;5.50;;;;;;;10.64;62.01;99638.59;4910818;29;20047;-76
2022/03/12 07:35:59;;;;;;;9.75;5.88;;;;;;;10.69;61.86;99644.47;4920596;29;20032;-77
2022/03/12 07:38:25;;;;;;;7.80;5.85;;;;;;;10.72;61.81;99631.13;4923180;29;20044;-79
2022/03/12 07:40:51;;;;;;;9.15;5.88;;;;;;;10.66;61.92;99624.38;4920461;29;20117;-77
2022/03/12 07:43:16;;;;;;;10.30;6.93;;;;;;;10.74;61.60;99634.53;4924427;29;20118;-77
2022/03/12 07:45:42;;;;;;;9.43;6.05;;;;;;;10.82;61.31;99634.13;4934721;29;20044;-77
2022/03/12 07:48:07;;;;;;;7.82;5.75;;;;;;;10.95;60.29;99646.59;4932889;29;20101;-77
2022/03/12 07:50:34;;;;;;;7.95;5.80;;;;;;;11.02;60.29;99647.09;4941793;29;20180;-76
2022/03/12 07:52:59;;;;;;;10.63;6.40;;;;;;;11.02;60.22;99640.97;4941909;29;20043;-77
2022/03/12 07:55:26;;;;;;;8.50;4.80;;;;;;;11.12;60.32;99645.69;4937166;29;20088;-77
2022/03/12 07:57:51;;;;;;;10.57;5.57;;;;;;;11.31;59.24;99645.53;4934008;29;20190;-77
2022/03/12 08:00:18;;;;;;;8.23;5.72;;;;;;;11.41;59.15;99642.41;4933677;29;20031;-79
2022/03/12 08:02:44;;;;;;;10.50;5.57;;;;;;;11.49;58.64;99642.81;4942617;29;20042;-78
2022/03/12 08:05:10;;;;;;;9.02;5.20;;;;;;;11.61;58.29;99644.78;4939788;29;20100;-77
2022/03/12 08:07:37;;;;;;;9.77;6.47;;;;;;;11.58;58.34;99645.81;4916542;29;20035;-78
2022/03/12 08:10:03;;;;;;;8.35;6.53;;;;;;;11.69;58.17;99658.44;4917675;29;20048;-78
2022/03/12 08:12:31;;;;;;;9.20;5.95;;;;;;;11.86;57.69;99657.44;4923746;29;20044;-76
2022/03/12 08:15:02;;;;;;;10.75;4.82;;;;;;;11.87;57.10;99651.28;4927708;29;20039;-72
2022/03/12 08:17:28;;;;;;;9.73;5.57;;;;;;;12.00;56.96;99651.44;4935970;28;20142;-71
2022/03/12 08:19:54;;;;;;;10.93;5.15;;;;;;;12.16;56.51;99652.25;4939713;28;20198;-72
2022/03/12 08:22:20;;;;;;;12.15;5.68;;;;;;;12.36;56.46;99659.03;4950501;28;20184;-72
2022/03/12 08:24:46;;;;;;;12.90;4.90;;;;;;;12.49;55.54;99653.84;4933770;28;20631;-73
2022/03/12 08:27:13;;;;;;;10.43;4.85;;;;;;;12.61;54.97;99653.13;4951566;28;20095;-72
2022/03/12 08:29:39;;;;;;;10.95;6.00;;;;;;;12.88;54.40;99658.53;4951607;29;20601;-73
2022/03/12 08:32:07;;;;;;;10.15;4.72;;;;;;;12.95;53.60;99664.31;4950703;29;20039;-73
2022/03/12 08:34:33;;;;;;;9.07;4.47;;;;;;;12.94;53.54;99667.91;4950742;28;20091;-73
2022/03/12 08:36:58;;;;;;;6.78;4.20;;;;;;;12.97;53.07;99672.16;4951042;29;20059;-72
2022/03/12 08:39:23;;;;;;;8.35;4.47;;;;;;;13.06;53.09;99674.25;4949844;29;20047;-72
2022/03/12 08:41:49;;;;;;;15.98;7.00;;;;;;;13.06;53.14;99680.38;4950326;29;20126;-73
2022/03/12 08:44:14;;;;;;;7.40;4.22;;;;;;;12.95;52.89;99688.13;4943142;28;20059;-74
2022/03/12 08:46:42;;;;;;;9.02;4.75;;;;;;;12.88;53.27;99686.81;4928266;29;20036;-70
2022/03/12 08:49:08;;;;;;;7.82;4.40;;;;;;;12.88;53.40;99681.50;4927770;29;20047;-73
2022/03/12 08:51:35;;;;;;;7.35;4.45;;;;;;;12.81;53.41;99690.75;4916915;29;20123;-72
2022/03/12 08:54:02;;;;;;;6.97;4.05;;;;;;;12.84;53.37;99701.16;4927364;29;20035;-71
2022/03/12 08:56:27;;;;;;;7.75;3.35;;;;;;;13.00;53.15;99703.75;4927005;29;20031;-72
2022/03/12 08:58:53;;;;;;;9.88;4.10;;;;;;;12.98;52.30;99701.19;4925996;29;20039;-71
2022/03/12 09:01:18;;;;;;;7.90;4.45;;;;;;;13.38;52.02;99697.91;4932504;29;20051;-71
2022/03/12 09:03:43;;;;;;;6.55;4.40;;;;;;;14.06;50.03;99697.97;4921338;29;20027;-71
2022/03/12 09:06:10;;;;;;;8.55;4.65;;;;;;;14.31;48.78;99694.56;4917750;29;20756;-74
2022/03/12 09:08:36;;;;;;;7.35;5.32;;;;;;;14.81;47.76;99700.94;4920627;29;20377;-73
2022/03/12 09:11:01;;;;;;;12.40;3.97;;;;;;;15.22;46.44;99686.63;4931926;29;20044;-77
2022/03/12 09:13:27;;;;;;;9.70;4.13;;;;;;;15.76;45.72;99684.66;4915147;29;20040;-74
2022/03/12 09:15:54;;;;;;;7.57;4.03;;;;;;;16.42;43.78;99672.66;4925828;29;20074;-77
2022/03/12 09:18:20;;;;;;;8.80;4.32;;;;;;;17.00;42.88;99679.81;4924924;29;20043;-76
2022/03/12 09:20:47;;;;;;;9.15;4.22;;;;;;;16.78;41.87;99680.59;4920460;29;20032;-76
2022/03/12 09:23:14;;;;;;;6.85;3.97;;;;;;;16.46;42.77;99689.22;4913132;29;20095;-76
2022/03/12 09:25:41;;;;;;;7.75;4.03;;;;;;;16.46;42.27;99697.19;4914746;29;20095;-76
2022/03/12 09:28:07;;;;;;;11.82;5.15;;;;;;;16.28;42.40;99696.78;4920568;29;20035;-77
2022/03/12 09:30:32;;;;;;;4.57;3.80;;;;;;;16.60;42.02;99693.50;4930694;29;20048;-75
2022/03/12 09:32:57;;;;;;;8.32;4.43;;;;;;;17.19;41.07;99688.09;4937420;29;20031;-74
2022/03/12 09:35:23;;;;;;;7.78;3.20;;;;;;;17.21;40.91;99686.16;4939670;29;20035;-72
2022/03/12 09:37:48;;;;;;;7.18;3.40;;;;;;;16.51;41.34;99700.38;4920080;29;20063;-75
2022/03/12 09:40:16;;;;;;;7.80;3.17;;;;;;;15.95;42.44;99710.72;4931191;29;20043;-73
2022/03/12 09:42:43;;;;;;;5.55;3.17;;;;;;;15.50;43.86;99707.72;4931056;29;20042;-75
2022/03/12 09:45:09;;;;;;;8.57;3.70;;;;;;;15.22;44.14;99704.38;4931232;29;20067;-73
2022/03/12 09:47:35;;;;;;;6.63;3.88;;;;;;;15.07;44.66;99702.78;4930397;29;20522;-74
2022/03/12 09:50:01;;;;;;;9.43;3.60;;;;;;;15.07;44.87;99698.31;4913125;29;20043;-74
2022/03/12 09:52:27;;;;;;;8.93;3.80;;;;;;;15.12;45.29;99704.16;4930285;29;20039;-74
2022/03/12 09:54:52;;;;;;;7.75;3.35;;;;;;;15.20;45.06;99706.28;4930545;29;20543;-76
2022/03/12 09:57:18;;;;;;;6.68;3.80;;;;;;;15.27;44.37;99698.75;4931506;29;20560;-74
2022/03/12 09:59:44;;;;;;;6.50;3.05;;;;;;;15.15;44.58;99709.25;4930861;29;20051;-74
2022/03/12 10:02:09;;;;;;;5.57;3.20;;;;;;;15.04;45.01;99714.47;4913365;29;20068;-75
2022/03/12 10:04:34;;;;;;;7.95;3.40;;;;;;;14.77;45.60;99718.03;4925344;29;20063;-74
2022/03/12 10:07:01;;;;;;;5.32;3.05;;;;;;;14.69;45.84;99715.03;4929398;29;20039;-73
2022/03/12 10:09:26;;;;;;;6.63;3.22;;;;;;;14.60;46.00;99719.19;4928838;29;20055;-75
2022/03/12 10:11:52;;;;;;;5.05;3.10;;;;;;;14.35;46.32;99719.94;4930119;29;20044;-77
2022/03/12 10:14:18;;;;;;;8.65;4.47;;;;;;;14.31;46.27;99715.78;4929604;29;20167;-76
2022/03/12 10:16:43;;;;;;;6.72;3.80;;;;;;;14.22;46.74;99716.38;4930380;29;20157;-75
2022/03/12 10:19:09;;;;;;;5.38;2.88;;;;;;;14.26;46.92;99715.22;4915907;29;20044;-73
2022/03/12 10:21:37;;;;;;;9.02;3.40;;;;;;;14.22;47.16;99720.81;4895316;29;20090;-73
2022/03/12 10:24:04;;;;;;;8.10;3.67;;;;;;;14.14;47.21;99716.88;4906455;29;20040;-74
2022/03/12 10:26:29;;;;;;;8.13;3.55;;;;;;;14.18;47.37;99715.72;4928022;29;20032;-74
2022/03/12 10:28:54;;;;;;;5.43;3.55;;;;;;;14.34;46.96;99715.56;4923048;29;20463;-76
2022/03/12 10:31:21;;;;;;;3.95;3.08;;;;;;;14.38;46.37;99698.50;4918382;29;20036;-76
2022/03/12 10:33:47;;;;;;;6.78;3.13;;;;;;;14.57;46.13;99694.63;4922855;29;20042;-77
2022/03/12 10:36:18;;;;;;;8.10;4.53;;;;;;;14.64;45.53;99697.75;4928210;29;20047;-75
2022/03/12 10:38:48;;;;;;;7.00;3.83;;;;;;;14.69;45.67;99695.63;4928741;29;20209;-76
2022/03/12 10:41:14;;;;;;;7.63;3.25;;;;;;;14.59;45.30;99692.75;4930340;29;20039;-76
2022/03/12 10:43:54;;;;;;;7.75;4.05;;;;;;;14.49;45.34;99695.13;4929274;29;20043;-77
2022/03/12 10:46:27;;;;;;;5.07;3.35;;;;;;;14.52;45.44;99694.94;4930229;29;20066;-76
2022/03/12 10:48:59;;;;;;;5.63;3.40;;;;;;;14.47;45.63;99683.78;4944904;29;20087;-77
2022/03/12 10:51:54;;;;;;;10.63;4.38;;;;;;;14.59;45.77;99690.97;4930704;29;20052;-76
2022/03/12 10:54:20;;;;;;;6.60;4.32;;;;;;;14.58;45.48;99683.09;4922542;29;20068;-77
2022/03/12 10:56:54;;;;;;;6.07;3.20;;;;;;;14.73;44.64;99682.03;4916635;29;20055;-77
2022/03/12 10:59:21;;;;;;;4.22;3.00;;;;;;;14.86;44.67;99674.09;4920339;29;20066;-74
2022/03/12 11:01:52;;;;;;;7.70;4.15;;;;;;;14.98;44.05;99683.00;4930957;29;20066;-76
2022/03/12 11:04:22;;;;;;;8.50;3.15;;;;;;;15.13;43.68;99676.63;4933875;29;20043;-76
2022/03/12 11:06:49;;;;;;;5.90;3.17;;;;;;;15.09;43.55;99683.13;4936452;29;20126;-76
2022/03/12 11:09:18;;;;;;;4.53;3.40;;;;;;;15.04;43.89;99679.94;4937897;29;20104;-75
2022/03/12 11:11:44;;;;;;;5.40;3.45;;;;;;;15.05;44.38;99686.94;4933275;29;20144;-77
2022/03/12 11:14:17;;;;;;;4.82;3.60;;;;;;;15.14;43.81;99670.38;4925773;29;20122;-76
2022/03/12 11:16:50;;;;;;;5.15;3.20;;;;;;;15.21;43.74;99668.13;4916006;29;20142;-75
2022/03/12 11:19:17;;;;;;;6.18;4.15;;;;;;;15.17;43.63;99686.09;4917054;29;20048;-76
2022/03/12 11:21:51;;;;;;;8.18;3.70;;;;;;;14.97;43.82;99683.97;4910540;29;20036;-72
2022/03/12 11:24:22;;;;;;;4.35;3.33;;;;;;;14.80;44.17;99691.28;4927297;29;20031;-74
2022/03/12 11:26:56;;;;;;;6.13;3.20;;;;;;;14.76;44.00;99702.22;4926526;29;20044;-75
2022/03/12 11:29:24;;;;;;;4.75;2.70;;;;;;;14.78;43.78;99702.97;4927445;29;20424;-74
2022/03/12 11:31:52;;;;;;;5.57;2.75;;;;;;;14.84;44.14;99710.53;4926549;29;20449;-73
2022/03/12 11:34:20;;;;;;;6.65;4.13;;;;;;;14.89;43.69;99703.09;4927427;29;20039;-77